sensor_id;sensor_type;location;lat;lon;timestamp;P1;durP1;ratioP1;P2;durP2;ratioP2
17886;SDS011;9069;52.044;7.472;2022-08-19T00:01:24;5.55;;;3.92;;
17886;SDS011;9069;52.044;7.472;2022-08-19T00:03:59;6.22;;;3.97;;
17886;SDS011;9069;52.044;7.472;2022-08-19T00:06:28;7.25;;;4.43;;
17886;SDS011;9069;52.044;7.472;2022-08-19T00:08:57;5.90;;;4.07;;
17886;SDS011;9069;52.044;7.472;2022-08-19T00:11:26;5.07;;;3.80;;
17886;SDS011;9069;52.044;7.472;2022-08-19T00:13:54;5.95;;;3.55;;
17886;SDS011;9069;52.044;7.472;2022-08-19T00:16:23;5.72;;;3.90;;
17886;SDS011;9069;52.044;7.472;2022-08-19T00:18:52;4.55;;;4.15;;
17886;SDS011;9069;52.044;7.472;2022-08-19T00:21:21;5.05;;;3.95;;
17886;SDS011;9069;52.044;7.472;2022-08-19T00:23:49;6.78;;;3.97;;
17886;SDS011;9069;52.044;7.472;2022-08-19T00:26:16;5.03;;;4.25;;
17886;SDS011;9069;52.044;7.472;2022-08-19T00:28:43;6.25;;;4.63;;
17886;SDS011;9069;52.044;7.472;2022-08-19T00:31:10;5.57;;;4.07;;
17886;SDS011;9069;52.044;7.472;2022-08-19T00:33:37;4.85;;;4.05;;
17886;SDS011;9069;52.044;7.472;2022-08-19T00:36:06;5.05;;;4.10;;
17886;SDS011;9069;52.044;7.472;2022-08-19T00:38:36;6.43;;;3.78;;
17886;SDS011;9069;52.044;7.472;2022-08-19T00:41:04;4.75;;;4.10;;
17886;SDS011;9069;52.044;7.472;2022-08-19T00:43:32;8.30;;;3.78;;
17886;SDS011;9069;52.044;7.472;2022-08-19T00:45:59;7.22;;;3.92;;
17886;SDS011;9069;52.044;7.472;2022-08-19T00:48:31;8.18;;;4.00;;
17886;SDS011;9069;52.044;7.472;2022-08-19T00:50:59;6.28;;;4.15;;
17886;SDS011;9069;52.044;7.472;2022-08-19T00:53:27;5.95;;;3.85;;
17886;SDS011;9069;52.044;7.472;2022-08-19T00:55:56;5.72;;;4.28;;
17886;SDS011;9069;52.044;7.472;2022-08-19T00:58:27;5.63;;;4.13;;
17886;SDS011;9069;52.044;7.472;2022-08-19T01:00:56;6.95;;;4.47;;
17886;SDS011;9069;52.044;7.472;2022-08-19T01:03:22;7.80;;;4.97;;
17886;SDS011;9069;52.044;7.472;2022-08-19T01:05:50;7.22;;;4.75;;
17886;SDS011;9069;52.044;7.472;2022-08-19T01:08:18;6.13;;;4.40;;
17886;SDS011;9069;52.044;7.472;2022-08-19T01:10:47;7.60;;;4.75;;
17886;SDS011;9069;52.044;7.472;2022-08-19T01:13:19;6.32;;;5.22;;
17886;SDS011;9069;52.044;7.472;2022-08-19T01:15:59;8.05;;;5.35;;
17886;SDS011;9069;52.044;7.472;2022-08-19T01:18:29;8.57;;;4.88;;
17886;SDS011;9069;52.044;7.472;2022-08-19T01:21:00;5.80;;;4.47;;
17886;SDS011;9069;52.044;7.472;2022-08-19T01:23:32;5.70;;;4.47;;
17886;SDS011;9069;52.044;7.472;2022-08-19T01:26:12;7.80;;;5.45;;
17886;SDS011;9069;52.044;7.472;2022-08-19T01:28:45;6.43;;;4.35;;
17886;SDS011;9069;52.044;7.472;2022-08-19T01:31:14;7.68;;;4.57;;
17886;SDS011;9069;52.044;7.472;2022-08-19T01:33:53;6.25;;;4.80;;
17886;SDS011;9069;52.044;7.472;2022-08-19T01:36:23;9.20;;;5.50;;
17886;SDS011;9069;52.044;7.472;2022-08-19T01:38:55;6.22;;;4.82;;
17886;SDS011;9069;52.044;7.472;2022-08-19T01:41:22;4.90;;;4.25;;
17886;SDS011;9069;52.044;7.472;2022-08-19T01:43:50;6.95;;;4.63;;
17886;SDS011;9069;52.044;7.472;2022-08-19T01:46:37;6.25;;;4.90;;
17886;SDS011;9069;52.044;7.472;2022-08-19T01:49:05;6.25;;;4.78;;
17886;SDS011;9069;52.044;7.472;2022-08-19T01:51:34;8.63;;;5.60;;
17886;SDS011;9069;52.044;7.472;2022-08-19T01:54:05;7.05;;;5.50;;
17886;SDS011;9069;52.044;7.472;2022-08-19T01:56:36;5.70;;;4.88;;
17886;SDS011;9069;52.044;7.472;2022-08-19T01:59:06;6.53;;;5.25;;
17886;SDS011;9069;52.044;7.472;2022-08-19T02:01:36;9.80;;;5.10;;
17886;SDS011;9069;52.044;7.472;2022-08-19T02:04:03;8.35;;;5.50;;
17886;SDS011;9069;52.044;7.472;2022-08-19T02:06:31;6.95;;;5.38;;
17886;SDS011;9069;52.044;7.472;2022-08-19T02:08:59;7.47;;;4.72;;
17886;SDS011;9069;52.044;7.472;2022-08-19T02:11:27;10.15;;;6.35;;
17886;SDS011;9069;52.044;7.472;2022-08-19T02:13:57;13.63;;;6.60;;
17886;SDS011;9069;52.044;7.472;2022-08-19T02:16:25;6.72;;;5.53;;
17886;SDS011;9069;52.044;7.472;2022-08-19T02:18:51;9.38;;;6.00;;
17886;SDS011;9069;52.044;7.472;2022-08-19T02:21:19;8.32;;;5.75;;
17886;SDS011;9069;52.044;7.472;2022-08-19T02:23:48;10.00;;;6.32;;
17886;SDS011;9069;52.044;7.472;2022-08-19T02:26:16;11.63;;;7.00;;
17886;SDS011;9069;52.044;7.472;2022-08-19T02:28:44;7.30;;;5.78;;
17886;SDS011;9069;52.044;7.472;2022-08-19T02:31:12;6.88;;;5.13;;
17886;SDS011;9069;52.044;7.472;2022-08-19T02:33:41;11.18;;;5.90;;
17886;SDS011;9069;52.044;7.472;2022-08-19T02:36:09;8.88;;;6.18;;
17886;SDS011;9069;52.044;7.472;2022-08-19T02:38:37;10.38;;;7.20;;
17886;SDS011;9069;52.044;7.472;2022-08-19T02:41:15;9.40;;;6.40;;
17886;SDS011;9069;52.044;7.472;2022-08-19T02:43:51;9.35;;;6.22;;
17886;SDS011;9069;52.044;7.472;2022-08-19T02:46:38;9.93;;;6.13;;
17886;SDS011;9069;52.044;7.472;2022-08-19T02:49:06;12.05;;;6.18;;
17886;SDS011;9069;52.044;7.472;2022-08-19T02:51:35;10.10;;;6.65;;
17886;SDS011;9069;52.044;7.472;2022-08-19T02:54:05;8.57;;;6.22;;
17886;SDS011;9069;52.044;7.472;2022-08-19T02:56:34;9.75;;;6.78;;
17886;SDS011;9069;52.044;7.472;2022-08-19T02:59:02;9.55;;;6.40;;
17886;SDS011;9069;52.044;7.472;2022-08-19T03:01:36;9.00;;;6.85;;
17886;SDS011;9069;52.044;7.472;2022-08-19T03:04:07;9.80;;;7.05;;
17886;SDS011;9069;52.044;7.472;2022-08-19T03:06:37;8.50;;;6.53;;
17886;SDS011;9069;52.044;7.472;2022-08-19T03:09:05;9.82;;;6.20;;
17886;SDS011;9069;52.044;7.472;2022-08-19T03:11:33;10.75;;;6.35;;
17886;SDS011;9069;52.044;7.472;2022-08-19T03:14:00;8.43;;;6.18;;
17886;SDS011;9069;52.044;7.472;2022-08-19T03:16:30;9.15;;;6.30;;
17886;SDS011;9069;52.044;7.472;2022-08-19T03:18:59;9.80;;;6.53;;
17886;SDS011;9069;52.044;7.472;2022-08-19T03:21:28;8.43;;;6.07;;
17886;SDS011;9069;52.044;7.472;2022-08-19T03:23:57;9.35;;;6.07;;
17886;SDS011;9069;52.044;7.472;2022-08-19T03:26:25;9.35;;;5.40;;
17886;SDS011;9069;52.044;7.472;2022-08-19T03:28:51;9.27;;;6.28;;
17886;SDS011;9069;52.044;7.472;2022-08-19T03:31:24;6.63;;;5.13;;
17886;SDS011;9069;52.044;7.472;2022-08-19T03:34:14;7.00;;;5.85;;
17886;SDS011;9069;52.044;7.472;2022-08-19T03:36:44;8.63;;;5.82;;
17886;SDS011;9069;52.044;7.472;2022-08-19T03:39:12;9.43;;;6.60;;
17886;SDS011;9069;52.044;7.472;2022-08-19T03:41:40;8.07;;;6.13;;
17886;SDS011;9069;52.044;7.472;2022-08-19T03:44:15;9.25;;;6.85;;
17886;SDS011;9069;52.044;7.472;2022-08-19T03:46:49;10.45;;;7.68;;
17886;SDS011;9069;52.044;7.472;2022-08-19T03:49:18;11.85;;;8.00;;
17886;SDS011;9069;52.044;7.472;2022-08-19T03:51:46;12.23;;;8.75;;
17886;SDS011;9069;52.044;7.472;2022-08-19T03:54:15;10.88;;;7.05;;
17886;SDS011;9069;52.044;7.472;2022-08-19T03:56:47;10.25;;;7.93;;
17886;SDS011;9069;52.044;7.472;2022-08-19T03:59:20;10.60;;;8.43;;
17886;SDS011;9069;52.044;7.472;2022-08-19T04:01:52;10.23;;;8.15;;
17886;SDS011;9069;52.044;7.472;2022-08-19T04:04:20;10.07;;;7.47;;
17886;SDS011;9069;52.044;7.472;2022-08-19T04:06:47;10.13;;;7.95;;
17886;SDS011;9069;52.044;7.472;2022-08-19T04:09:14;12.50;;;8.52;;
17886;SDS011;9069;52.044;7.472;2022-08-19T04:11:49;10.60;;;8.23;;
17886;SDS011;9069;52.044;7.472;2022-08-19T04:14:20;11.40;;;8.32;;
17886;SDS011;9069;52.044;7.472;2022-08-19T04:16:50;10.52;;;8.18;;
17886;SDS011;9069;52.044;7.472;2022-08-19T04:19:18;11.50;;;8.77;;
17886;SDS011;9069;52.044;7.472;2022-08-19T04:21:46;10.48;;;8.02;;
17886;SDS011;9069;52.044;7.472;2022-08-19T04:24:16;11.82;;;8.73;;
17886;SDS011;9069;52.044;7.472;2022-08-19T04:26:43;12.48;;;8.93;;
17886;SDS011;9069;52.044;7.472;2022-08-19T04:29:11;12.73;;;8.70;;
17886;SDS011;9069;52.044;7.472;2022-08-19T04:31:40;11.88;;;8.18;;
17886;SDS011;9069;52.044;7.472;2022-08-19T04:34:10;13.88;;;8.73;;
17886;SDS011;9069;52.044;7.472;2022-08-19T04:36:41;12.15;;;8.90;;
17886;SDS011;9069;52.044;7.472;2022-08-19T04:39:09;12.05;;;9.27;;
17886;SDS011;9069;52.044;7.472;2022-08-19T04:41:38;12.88;;;9.23;;
17886;SDS011;9069;52.044;7.472;2022-08-19T04:44:24;10.82;;;8.55;;
17886;SDS011;9069;52.044;7.472;2022-08-19T04:46:51;16.05;;;8.77;;
17886;SDS011;9069;52.044;7.472;2022-08-19T04:49:20;13.43;;;9.13;;
17886;SDS011;9069;52.044;7.472;2022-08-19T04:51:52;13.35;;;8.85;;
17886;SDS011;9069;52.044;7.472;2022-08-19T04:54:21;12.80;;;9.43;;
17886;SDS011;9069;52.044;7.472;2022-08-19T04:57:04;13.63;;;10.40;;
17886;SDS011;9069;52.044;7.472;2022-08-19T04:59:35;14.95;;;9.93;;
17886;SDS011;9069;52.044;7.472;2022-08-19T05:02:03;16.08;;;10.43;;
17886;SDS011;9069;52.044;7.472;2022-08-19T05:04:30;13.82;;;10.02;;
17886;SDS011;9069;52.044;7.472;2022-08-19T05:06:59;13.70;;;9.82;;
17886;SDS011;9069;52.044;7.472;2022-08-19T05:09:28;14.68;;;10.18;;
17886;SDS011;9069;52.044;7.472;2022-08-19T05:12:15;14.32;;;10.35;;
17886;SDS011;9069;52.044;7.472;2022-08-19T05:14:43;16.42;;;10.98;;
17886;SDS011;9069;52.044;7.472;2022-08-19T05:17:11;14.48;;;9.75;;
17886;SDS011;9069;52.044;7.472;2022-08-19T05:19:58;17.20;;;10.55;;
17886;SDS011;9069;52.044;7.472;2022-08-19T05:22:44;14.15;;;10.30;;
17886;SDS011;9069;52.044;7.472;2022-08-19T05:25:14;16.85;;;10.75;;
17886;SDS011;9069;52.044;7.472;2022-08-19T05:27:45;13.38;;;10.27;;
17886;SDS011;9069;52.044;7.472;2022-08-19T05:30:12;14.63;;;10.10;;
17886;SDS011;9069;52.044;7.472;2022-08-19T05:32:39;18.30;;;10.63;;
17886;SDS011;9069;52.044;7.472;2022-08-19T05:35:06;14.52;;;10.52;;
17886;SDS011;9069;52.044;7.472;2022-08-19T05:37:33;16.55;;;11.13;;
17886;SDS011;9069;52.044;7.472;2022-08-19T05:40:00;13.88;;;9.98;;
17886;SDS011;9069;52.044;7.472;2022-08-19T05:42:27;18.42;;;10.98;;
17886;SDS011;9069;52.044;7.472;2022-08-19T05:44:54;13.82;;;10.70;;
17886;SDS011;9069;52.044;7.472;2022-08-19T05:47:22;16.33;;;10.30;;
17886;SDS011;9069;52.044;7.472;2022-08-19T05:49:49;16.70;;;9.68;;
17886;SDS011;9069;52.044;7.472;2022-08-19T05:52:17;12.70;;;9.00;;
17886;SDS011;9069;52.044;7.472;2022-08-19T05:54:51;14.23;;;8.95;;
17886;SDS011;9069;52.044;7.472;2022-08-19T05:57:22;13.20;;;9.23;;
17886;SDS011;9069;52.044;7.472;2022-08-19T05:59:49;12.40;;;9.32;;
17886;SDS011;9069;52.044;7.472;2022-08-19T06:02:23;14.73;;;9.25;;
17886;SDS011;9069;52.044;7.472;2022-08-19T06:04:50;12.98;;;8.57;;
17886;SDS011;9069;52.044;7.472;2022-08-19T06:07:17;15.52;;;9.73;;
17886;SDS011;9069;52.044;7.472;2022-08-19T06:09:45;13.60;;;8.77;;
17886;SDS011;9069;52.044;7.472;2022-08-19T06:12:26;15.73;;;8.18;;
17886;SDS011;9069;52.044;7.472;2022-08-19T06:15:01;12.13;;;7.78;;
17886;SDS011;9069;52.044;7.472;2022-08-19T06:17:30;13.20;;;8.95;;
17886;SDS011;9069;52.044;7.472;2022-08-19T06:19:58;13.20;;;7.93;;
17886;SDS011;9069;52.044;7.472;2022-08-19T06:22:25;12.57;;;8.18;;
17886;SDS011;9069;52.044;7.472;2022-08-19T06:24:53;11.20;;;8.00;;
17886;SDS011;9069;52.044;7.472;2022-08-19T06:27:21;11.65;;;8.38;;
17886;SDS011;9069;52.044;7.472;2022-08-19T06:29:48;11.82;;;8.10;;
17886;SDS011;9069;52.044;7.472;2022-08-19T06:32:15;11.50;;;7.90;;
17886;SDS011;9069;52.044;7.472;2022-08-19T06:34:44;8.93;;;6.95;;
17886;SDS011;9069;52.044;7.472;2022-08-19T06:37:10;12.52;;;6.80;;
17886;SDS011;9069;52.044;7.472;2022-08-19T06:39:38;11.98;;;6.75;;
17886;SDS011;9069;52.044;7.472;2022-08-19T06:42:07;9.63;;;7.40;;
17886;SDS011;9069;52.044;7.472;2022-08-19T06:44:38;12.48;;;7.00;;
17886;SDS011;9069;52.044;7.472;2022-08-19T06:47:09;10.77;;;6.35;;
17886;SDS011;9069;52.044;7.472;2022-08-19T06:49:40;8.25;;;6.13;;
17886;SDS011;9069;52.044;7.472;2022-08-19T06:52:11;11.65;;;6.60;;
17886;SDS011;9069;52.044;7.472;2022-08-19T06:54:40;11.43;;;6.93;;
17886;SDS011;9069;52.044;7.472;2022-08-19T06:57:22;9.70;;;6.80;;
17886;SDS011;9069;52.044;7.472;2022-08-19T06:59:50;9.98;;;5.95;;
17886;SDS011;9069;52.044;7.472;2022-08-19T07:02:17;9.15;;;6.63;;
17886;SDS011;9069;52.044;7.472;2022-08-19T07:04:48;11.00;;;5.72;;
17886;SDS011;9069;52.044;7.472;2022-08-19T07:07:18;10.10;;;6.15;;
17886;SDS011;9069;52.044;7.472;2022-08-19T07:09:47;16.50;;;6.22;;
17886;SDS011;9069;52.044;7.472;2022-08-19T07:12:31;8.85;;;6.15;;
17886;SDS011;9069;52.044;7.472;2022-08-19T07:15:04;7.80;;;5.75;;
17886;SDS011;9069;52.044;7.472;2022-08-19T07:17:32;7.95;;;6.30;;
17886;SDS011;9069;52.044;7.472;2022-08-19T07:20:00;11.50;;;6.00;;
17886;SDS011;9069;52.044;7.472;2022-08-19T07:22:32;8.88;;;5.93;;
17886;SDS011;9069;52.044;7.472;2022-08-19T07:25:02;12.10;;;5.80;;
17886;SDS011;9069;52.044;7.472;2022-08-19T07:27:30;10.27;;;6.22;;
17886;SDS011;9069;52.044;7.472;2022-08-19T07:29:59;8.63;;;5.88;;
17886;SDS011;9069;52.044;7.472;2022-08-19T07:32:26;9.15;;;6.00;;
17886;SDS011;9069;52.044;7.472;2022-08-19T07:34:53;10.88;;;6.03;;
17886;SDS011;9069;52.044;7.472;2022-08-19T07:37:21;7.35;;;5.25;;
17886;SDS011;9069;52.044;7.472;2022-08-19T07:39:48;5.32;;;4.10;;
17886;SDS011;9069;52.044;7.472;2022-08-19T07:42:15;6.10;;;4.30;;
17886;SDS011;9069;52.044;7.472;2022-08-19T07:44:44;7.78;;;3.70;;
17886;SDS011;9069;52.044;7.472;2022-08-19T07:47:16;2.92;;;2.60;;
17886;SDS011;9069;52.044;7.472;2022-08-19T07:50:06;5.30;;;2.60;;
17886;SDS011;9069;52.044;7.472;2022-08-19T07:52:35;6.90;;;2.80;;
17886;SDS011;9069;52.044;7.472;2022-08-19T07:55:05;3.38;;;2.85;;
17886;SDS011;9069;52.044;7.472;2022-08-19T07:57:53;5.85;;;3.40;;
17886;SDS011;9069;52.044;7.472;2022-08-19T08:00:20;3.13;;;2.70;;
17886;SDS011;9069;52.044;7.472;2022-08-19T08:02:49;5.00;;;2.92;;
17886;SDS011;9069;52.044;7.472;2022-08-19T08:05:16;3.42;;;3.10;;
17886;SDS011;9069;52.044;7.472;2022-08-19T08:08:08;8.00;;;3.25;;
17886;SDS011;9069;52.044;7.472;2022-08-19T08:10:53;4.25;;;2.95;;
17886;SDS011;9069;52.044;7.472;2022-08-19T08:13:23;5.03;;;2.70;;
17886;SDS011;9069;52.044;7.472;2022-08-19T08:15:51;3.00;;;2.55;;
17886;SDS011;9069;52.044;7.472;2022-08-19T08:18:21;3.63;;;2.70;;
17886;SDS011;9069;52.044;7.472;2022-08-19T08:20:53;3.42;;;2.80;;
17886;SDS011;9069;52.044;7.472;2022-08-19T08:23:23;3.53;;;2.63;;
17886;SDS011;9069;52.044;7.472;2022-08-19T08:25:53;5.18;;;3.30;;
17886;SDS011;9069;52.044;7.472;2022-08-19T08:28:23;3.63;;;2.20;;
17886;SDS011;9069;52.044;7.472;2022-08-19T08:30:51;3.83;;;2.72;;
17886;SDS011;9069;52.044;7.472;2022-08-19T08:33:19;6.60;;;3.33;;
17886;SDS011;9069;52.044;7.472;2022-08-19T08:36:06;3.72;;;2.78;;
17886;SDS011;9069;52.044;7.472;2022-08-19T08:38:33;5.10;;;2.88;;
17886;SDS011;9069;52.044;7.472;2022-08-19T08:44:32;7.18;;;2.92;;
17886;SDS011;9069;52.044;7.472;2022-08-19T08:47:23;3.38;;;2.72;;
17886;SDS011;9069;52.044;7.472;2022-08-19T08:52:26;3.38;;;3.00;;
17886;SDS011;9069;52.044;7.472;2022-08-19T08:54:59;4.30;;;2.80;;
17886;SDS011;9069;52.044;7.472;2022-08-19T09:00:25;3.92;;;2.83;;
17886;SDS011;9069;52.044;7.472;2022-08-19T09:02:55;3.50;;;3.05;;
17886;SDS011;9069;52.044;7.472;2022-08-19T09:05:26;4.00;;;3.22;;
17886;SDS011;9069;52.044;7.472;2022-08-19T09:08:19;3.30;;;2.80;;
17886;SDS011;9069;52.044;7.472;2022-08-19T09:10:57;3.80;;;2.53;;
17886;SDS011;9069;52.044;7.472;2022-08-19T09:16:19;2.83;;;2.60;;
17886;SDS011;9069;52.044;7.472;2022-08-19T09:18:57;4.47;;;2.60;;
17886;SDS011;9069;52.044;7.472;2022-08-19T09:21:31;4.40;;;2.75;;
17886;SDS011;9069;52.044;7.472;2022-08-19T09:23:59;3.63;;;2.28;;
17886;SDS011;9069;52.044;7.472;2022-08-19T09:26:31;2.85;;;2.38;;
17886;SDS011;9069;52.044;7.472;2022-08-19T09:29:14;3.55;;;2.78;;
17886;SDS011;9069;52.044;7.472;2022-08-19T09:31:42;4.25;;;2.40;;
17886;SDS011;9069;52.044;7.472;2022-08-19T09:34:09;3.85;;;2.35;;
17886;SDS011;9069;52.044;7.472;2022-08-19T09:36:47;2.90;;;2.60;;
17886;SDS011;9069;52.044;7.472;2022-08-19T09:39:20;4.07;;;2.33;;
17886;SDS011;9069;52.044;7.472;2022-08-19T09:41:47;3.60;;;2.55;;
17886;SDS011;9069;52.044;7.472;2022-08-19T09:44:15;3.35;;;2.70;;
17886;SDS011;9069;52.044;7.472;2022-08-19T09:46:44;3.05;;;2.53;;
17886;SDS011;9069;52.044;7.472;2022-08-19T09:49:13;3.28;;;2.42;;
17886;SDS011;9069;52.044;7.472;2022-08-19T09:51:40;3.13;;;2.40;;
17886;SDS011;9069;52.044;7.472;2022-08-19T09:54:08;3.13;;;2.70;;
17886;SDS011;9069;52.044;7.472;2022-08-19T09:56:36;2.60;;;1.92;;
17886;SDS011;9069;52.044;7.472;2022-08-19T09:59:03;2.88;;;2.20;;
17886;SDS011;9069;52.044;7.472;2022-08-19T10:01:30;2.90;;;2.13;;
17886;SDS011;9069;52.044;7.472;2022-08-19T10:03:59;3.88;;;2.10;;
17886;SDS011;9069;52.044;7.472;2022-08-19T10:06:27;4.82;;;2.50;;
17886;SDS011;9069;52.044;7.472;2022-08-19T10:09:12;3.10;;;2.08;;
17886;SDS011;9069;52.044;7.472;2022-08-19T10:11:40;2.05;;;1.85;;
17886;SDS011;9069;52.044;7.472;2022-08-19T10:14:19;1.90;;;1.80;;
17886;SDS011;9069;52.044;7.472;2022-08-19T10:16:48;2.05;;;1.80;;
17886;SDS011;9069;52.044;7.472;2022-08-19T10:19:15;2.38;;;1.80;;
17886;SDS011;9069;52.044;7.472;2022-08-19T10:21:51;2.35;;;1.95;;
17886;SDS011;9069;52.044;7.472;2022-08-19T10:24:18;2.20;;;2.00;;
17886;SDS011;9069;52.044;7.472;2022-08-19T10:26:46;3.75;;;1.83;;
17886;SDS011;9069;52.044;7.472;2022-08-19T10:29:22;2.20;;;2.00;;
17886;SDS011;9069;52.044;7.472;2022-08-19T10:32:02;3.40;;;2.30;;
17886;SDS011;9069;52.044;7.472;2022-08-19T10:34:38;2.88;;;2.30;;
17886;SDS011;9069;52.044;7.472;2022-08-19T10:37:14;2.50;;;2.30;;
17886;SDS011;9069;52.044;7.472;2022-08-19T10:39:49;3.35;;;1.90;;
17886;SDS011;9069;52.044;7.472;2022-08-19T10:42:16;2.80;;;2.20;;
17886;SDS011;9069;52.044;7.472;2022-08-19T10:44:44;1.95;;;1.77;;
17886;SDS011;9069;52.044;7.472;2022-08-19T10:47:12;2.28;;;2.08;;
17886;SDS011;9069;52.044;7.472;2022-08-19T10:49:51;2.90;;;1.90;;
17886;SDS011;9069;52.044;7.472;2022-08-19T10:52:47;3.55;;;2.10;;
17886;SDS011;9069;52.044;7.472;2022-08-19T10:55:17;2.70;;;2.28;;
17886;SDS011;9069;52.044;7.472;2022-08-19T10:58:09;2.05;;;1.90;;
17886;SDS011;9069;52.044;7.472;2022-08-19T11:00:40;4.88;;;1.80;;
17886;SDS011;9069;52.044;7.472;2022-08-19T11:03:09;2.20;;;2.00;;
17886;SDS011;9069;52.044;7.472;2022-08-19T11:05:36;3.17;;;2.20;;
17886;SDS011;9069;52.044;7.472;2022-08-19T11:08:05;3.08;;;2.60;;
17886;SDS011;9069;52.044;7.472;2022-08-19T11:10:50;5.10;;;2.20;;
17886;SDS011;9069;52.044;7.472;2022-08-19T11:13:19;3.30;;;2.40;;
17886;SDS011;9069;52.044;7.472;2022-08-19T11:15:46;3.25;;;2.70;;
17886;SDS011;9069;52.044;7.472;2022-08-19T11:18:13;3.85;;;2.55;;
17886;SDS011;9069;52.044;7.472;2022-08-19T11:20:40;6.38;;;2.60;;
17886;SDS011;9069;52.044;7.472;2022-08-19T11:23:07;3.13;;;2.78;;
17886;SDS011;9069;52.044;7.472;2022-08-19T11:25:34;4.90;;;2.90;;
17886;SDS011;9069;52.044;7.472;2022-08-19T11:28:01;5.68;;;3.00;;
17886;SDS011;9069;52.044;7.472;2022-08-19T11:30:28;3.47;;;3.08;;
17886;SDS011;9069;52.044;7.472;2022-08-19T11:32:54;3.20;;;2.88;;
17886;SDS011;9069;52.044;7.472;2022-08-19T11:35:21;4.10;;;3.70;;
17886;SDS011;9069;52.044;7.472;2022-08-19T11:37:49;3.83;;;3.45;;
17886;SDS011;9069;52.044;7.472;2022-08-19T11:40:16;5.80;;;4.28;;
17886;SDS011;9069;52.044;7.472;2022-08-19T11:42:43;5.22;;;4.38;;
17886;SDS011;9069;52.044;7.472;2022-08-19T11:45:22;6.88;;;4.00;;
17886;SDS011;9069;52.044;7.472;2022-08-19T11:47:49;5.22;;;3.55;;
17886;SDS011;9069;52.044;7.472;2022-08-19T11:50:16;3.83;;;3.53;;
17886;SDS011;9069;52.044;7.472;2022-08-19T11:52:44;3.95;;;3.22;;
17886;SDS011;9069;52.044;7.472;2022-08-19T11:55:12;4.00;;;3.70;;
17886;SDS011;9069;52.044;7.472;2022-08-19T11:57:40;4.40;;;3.90;;
17886;SDS011;9069;52.044;7.472;2022-08-19T12:00:07;4.30;;;3.83;;
17886;SDS011;9069;52.044;7.472;2022-08-19T12:02:35;4.57;;;4.18;;
17886;SDS011;9069;52.044;7.472;2022-08-19T12:05:02;4.65;;;4.25;;
17886;SDS011;9069;52.044;7.472;2022-08-19T12:07:34;4.63;;;4.13;;
17886;SDS011;9069;52.044;7.472;2022-08-19T12:10:01;4.38;;;3.97;;
17886;SDS011;9069;52.044;7.472;2022-08-19T12:12:28;4.97;;;4.53;;
17886;SDS011;9069;52.044;7.472;2022-08-19T12:14:55;5.80;;;4.55;;
17886;SDS011;9069;52.044;7.472;2022-08-19T12:17:24;6.85;;;3.83;;
17886;SDS011;9069;52.044;7.472;2022-08-19T12:19:52;5.05;;;4.13;;
17886;SDS011;9069;52.044;7.472;2022-08-19T12:22:19;4.00;;;3.55;;
17886;SDS011;9069;52.044;7.472;2022-08-19T12:24:47;4.45;;;4.05;;
17886;SDS011;9069;52.044;7.472;2022-08-19T12:27:16;4.28;;;3.40;;
17886;SDS011;9069;52.044;7.472;2022-08-19T12:30:03;7.18;;;3.08;;
17886;SDS011;9069;52.044;7.472;2022-08-19T12:32:31;3.80;;;3.22;;
17886;SDS011;9069;52.044;7.472;2022-08-19T12:34:58;4.25;;;3.47;;
17886;SDS011;9069;52.044;7.472;2022-08-19T12:37:25;4.18;;;3.78;;
17886;SDS011;9069;52.044;7.472;2022-08-19T12:39:52;4.18;;;3.75;;
17886;SDS011;9069;52.044;7.472;2022-08-19T12:42:18;5.20;;;3.72;;
17886;SDS011;9069;52.044;7.472;2022-08-19T12:44:48;3.33;;;3.03;;
17886;SDS011;9069;52.044;7.472;2022-08-19T12:47:14;4.05;;;3.63;;
17886;SDS011;9069;52.044;7.472;2022-08-19T12:49:44;4.72;;;4.00;;
17886;SDS011;9069;52.044;7.472;2022-08-19T12:52:21;4.55;;;3.50;;
17886;SDS011;9069;52.044;7.472;2022-08-19T12:54:52;4.68;;;4.10;;
17886;SDS011;9069;52.044;7.472;2022-08-19T12:57:24;10.10;;;3.53;;
17886;SDS011;9069;52.044;7.472;2022-08-19T12:59:57;3.90;;;3.55;;
17886;SDS011;9069;52.044;7.472;2022-08-19T13:02:24;3.97;;;3.38;;
17886;SDS011;9069;52.044;7.472;2022-08-19T13:04:52;7.38;;;3.70;;
17886;SDS011;9069;52.044;7.472;2022-08-19T13:07:19;14.30;;;3.75;;
17886;SDS011;9069;52.044;7.472;2022-08-19T13:09:45;5.65;;;3.90;;
17886;SDS011;9069;52.044;7.472;2022-08-19T13:12:12;5.20;;;3.95;;
17886;SDS011;9069;52.044;7.472;2022-08-19T13:14:39;6.93;;;3.70;;
17886;SDS011;9069;52.044;7.472;2022-08-19T13:17:06;4.05;;;3.65;;
17886;SDS011;9069;52.044;7.472;2022-08-19T13:19:36;5.70;;;3.50;;
17886;SDS011;9069;52.044;7.472;2022-08-19T13:22:03;7.90;;;4.00;;
17886;SDS011;9069;52.044;7.472;2022-08-19T13:24:38;3.67;;;3.00;;
17886;SDS011;9069;52.044;7.472;2022-08-19T13:27:11;3.55;;;3.25;;
17886;SDS011;9069;52.044;7.472;2022-08-19T13:29:39;4.22;;;3.80;;
17886;SDS011;9069;52.044;7.472;2022-08-19T13:32:25;5.93;;;3.13;;
17886;SDS011;9069;52.044;7.472;2022-08-19T13:35:11;4.85;;;3.55;;
17886;SDS011;9069;52.044;7.472;2022-08-19T13:37:42;4.32;;;3.90;;
17886;SDS011;9069;52.044;7.472;2022-08-19T13:40:20;9.30;;;3.63;;
17886;SDS011;9069;52.044;7.472;2022-08-19T13:42:50;4.90;;;3.75;;
17886;SDS011;9069;52.044;7.472;2022-08-19T13:45:19;4.45;;;3.70;;
17886;SDS011;9069;52.044;7.472;2022-08-19T13:47:49;3.78;;;3.47;;
17886;SDS011;9069;52.044;7.472;2022-08-19T13:50:25;4.97;;;4.03;;
17886;SDS011;9069;52.044;7.472;2022-08-19T13:52:54;4.68;;;3.55;;
17886;SDS011;9069;52.044;7.472;2022-08-19T13:55:22;9.77;;;3.60;;
17886;SDS011;9069;52.044;7.472;2022-08-19T13:57:54;4.50;;;4.00;;
17886;SDS011;9069;52.044;7.472;2022-08-19T14:00:23;5.28;;;3.95;;
17886;SDS011;9069;52.044;7.472;2022-08-19T14:02:53;4.40;;;3.60;;
17886;SDS011;9069;52.044;7.472;2022-08-19T14:05:22;4.10;;;3.70;;
17886;SDS011;9069;52.044;7.472;2022-08-19T14:07:50;4.53;;;3.65;;
17886;SDS011;9069;52.044;7.472;2022-08-19T14:10:17;4.13;;;3.72;;
17886;SDS011;9069;52.044;7.472;2022-08-19T14:12:45;5.72;;;4.22;;
17886;SDS011;9069;52.044;7.472;2022-08-19T14:15:12;10.27;;;3.80;;
17886;SDS011;9069;52.044;7.472;2022-08-19T14:17:40;4.45;;;3.60;;
17886;SDS011;9069;52.044;7.472;2022-08-19T14:20:09;4.85;;;4.30;;
17886;SDS011;9069;52.044;7.472;2022-08-19T14:22:44;4.00;;;3.28;;
17886;SDS011;9069;52.044;7.472;2022-08-19T14:25:17;5.13;;;4.03;;
17886;SDS011;9069;52.044;7.472;2022-08-19T14:27:45;4.95;;;3.63;;
17886;SDS011;9069;52.044;7.472;2022-08-19T14:30:13;5.78;;;3.47;;
17886;SDS011;9069;52.044;7.472;2022-08-19T14:32:42;6.95;;;4.05;;
17886;SDS011;9069;52.044;7.472;2022-08-19T14:35:10;6.45;;;3.42;;
17886;SDS011;9069;52.044;7.472;2022-08-19T14:37:38;5.47;;;4.38;;
17886;SDS011;9069;52.044;7.472;2022-08-19T14:40:11;8.68;;;4.22;;
17886;SDS011;9069;52.044;7.472;2022-08-19T14:42:40;4.22;;;3.83;;
17886;SDS011;9069;52.044;7.472;2022-08-19T14:45:08;5.20;;;3.58;;
17886;SDS011;9069;52.044;7.472;2022-08-19T14:47:36;4.20;;;3.13;;
17886;SDS011;9069;52.044;7.472;2022-08-19T14:50:06;7.55;;;3.63;;
17886;SDS011;9069;52.044;7.472;2022-08-19T14:52:36;5.65;;;3.55;;
17886;SDS011;9069;52.044;7.472;2022-08-19T14:55:04;5.35;;;3.25;;
17886;SDS011;9069;52.044;7.472;2022-08-19T14:57:32;3.80;;;3.30;;
17886;SDS011;9069;52.044;7.472;2022-08-19T14:59:59;4.55;;;2.92;;
17886;SDS011;9069;52.044;7.472;2022-08-19T15:02:26;4.72;;;3.10;;
17886;SDS011;9069;52.044;7.472;2022-08-19T15:05:00;4.95;;;3.60;;
17886;SDS011;9069;52.044;7.472;2022-08-19T15:07:28;5.57;;;3.28;;
17886;SDS011;9069;52.044;7.472;2022-08-19T15:09:55;8.85;;;3.40;;
17886;SDS011;9069;52.044;7.472;2022-08-19T15:12:23;4.38;;;2.65;;
17886;SDS011;9069;52.044;7.472;2022-08-19T15:14:50;3.30;;;2.78;;
17886;SDS011;9069;52.044;7.472;2022-08-19T15:17:21;6.18;;;3.10;;
17886;SDS011;9069;52.044;7.472;2022-08-19T15:20:08;4.97;;;2.67;;
17886;SDS011;9069;52.044;7.472;2022-08-19T15:22:36;3.20;;;2.22;;
17886;SDS011;9069;52.044;7.472;2022-08-19T15:25:03;4.82;;;2.67;;
17886;SDS011;9069;52.044;7.472;2022-08-19T15:27:32;3.47;;;2.83;;
17886;SDS011;9069;52.044;7.472;2022-08-19T15:29:59;3.47;;;2.80;;